Time;durP1;ratioP1;P1;durP2;ratioP2;P2;SDS_P1;SDS_P2;PMS_P1;PMS_P2;Temp;Humidity;BMP_temperature;BMP_pressure;BME280_temperature;BME280_humidity;BME280_pressure;Samples;Min_cycle;Max_cycle;Signal;HPM_P1;HPM_P2
2023/10/02 00:00:42;;;;;;;;;;;;;;;18.65;83.18;100006.81;5013856;28;1886;-64
2023/10/02 00:03:09;;;;;;;;;;;;;;;18.64;82.48;100010.88;5013630;28;887;-65
2023/10/02 00:05:50;;;;;;;;;;;;;;;18.63;81.98;100003.72;5013510;28;832;-65
2023/10/02 00:08:32;;;;;;;;;;;;;;;18.61;82.49;100006.97;5013504;28;903;-64
2023/10/02 00:11:37;;;;;;;;;;;;;;;18.56;82.88;100008.31;5013448;28;835;-64
2023/10/02 00:14:19;;;;;;;;;;;;;;;18.51;83.61;100003.28;5013394;28;1188;-65
2023/10/02 00:16:59;;;;;;;;;;;;;;;18.47;84.37;99993.44;5013524;28;836;-64
2023/10/02 00:19:27;;;;;;;;;;;;;;;18.44;85.23;99995.13;5013393;28;836;-66
2023/10/02 00:21:57;;;;;;;;;;;;;;;18.43;85.84;100010.34;5012641;28;1910;-65
2023/10/02 00:24:25;;;;;;;;;;;;;;;18.44;86.42;100008.34;5013489;28;832;-65
2023/10/02 00:26:57;;;;;;;;;;;;;;;18.45;85.93;100009.91;4995332;28;1169;-64
2023/10/02 00:29:26;;;;;;;;;;;;;;;18.61;84.22;100011.78;5013124;28;969;-65
2023/10/02 00:31:53;;;;;;;;;;;;;;;18.71;83.27;100005.00;5012997;28;919;-65
2023/10/02 00:34:32;;;;;;;;;;;;;;;18.74;82.67;100004.13;5013041;28;828;-65
2023/10/02 00:37:06;;;;;;;;;;;;;;;18.78;82.07;100007.59;5012891;28;912;-65
2023/10/02 00:39:35;;;;;;;;;;;;;;;18.70;82.01;100003.47;5013158;28;832;-65
2023/10/02 00:45:02;;;;;;;;;;;;;;;18.62;82.42;100014.09;5013078;28;619;-64
2023/10/02 00:47:40;;;;;;;;;;;;;;;18.60;82.33;100021.41;5012892;28;883;-65
2023/10/02 00:50:10;;;;;;;;;;;;;;;18.60;82.26;100013.78;5012819;28;1243;-64
2023/10/02 00:52:41;;;;;;;;;;;;;;;18.56;82.35;100013.13;5012723;28;855;-65
2023/10/02 00:55:12;;;;;;;;;;;;;;;18.57;82.11;100028.69;5012612;28;837;-65
2023/10/02 00:57:39;;;;;;;;;;;;;;;18.50;82.24;100028.94;5012492;28;871;-65
2023/10/02 01:00:16;;;;;;;;;;;;;;;18.48;82.49;100025.81;5012666;28;825;-65
2023/10/02 01:02:45;;;;;;;;;;;;;;;18.40;82.51;100024.50;5012802;28;1936;-64
2023/10/02 01:05:16;;;;;;;;;;;;;;;18.38;82.24;100024.94;5012688;28;880;-63
2023/10/02 01:07:44;;;;;;;;;;;;;;;18.39;82.06;100023.69;5012444;28;883;-66
2023/10/02 01:10:23;;;;;;;;;;;;;;;18.35;81.95;100037.03;5012643;28;828;-65
2023/10/02 01:13:01;;;;;;;;;;;;;;;18.30;81.82;100026.41;5012472;28;922;-67
2023/10/02 01:15:31;;;;;;;;;;;;;;;18.26;81.88;100034.13;5012196;28;1250;-66
2023/10/02 01:18:21;;;;;;;;;;;;;;;18.25;81.88;100026.97;5012371;28;935;-65
2023/10/02 01:20:48;;;;;;;;;;;;;;;18.22;81.63;100027.84;5011414;28;1941;-66
2023/10/02 01:23:22;;;;;;;;;;;;;;;18.21;81.53;100029.88;5012241;28;912;-66
2023/10/02 01:25:57;;;;;;;;;;;;;;;18.20;81.51;100025.53;5012092;28;1349;-65
2023/10/02 01:28:25;;;;;;;;;;;;;;;18.17;81.33;100041.16;5012418;28;880;-64
2023/10/02 01:30:55;;;;;;;;;;;;;;;18.18;81.06;100033.59;5012157;28;923;-65
2023/10/02 01:33:22;;;;;;;;;;;;;;;18.17;81.08;100040.41;5012176;28;863;-65
2023/10/02 01:35:50;;;;;;;;;;;;;;;18.12;79.70;100035.38;5011462;28;865;-66
2023/10/02 01:38:21;;;;;;;;;;;;;;;18.12;79.24;100033.34;5011960;28;835;-64
2023/10/02 01:40:53;;;;;;;;;;;;;;;18.12;79.28;100038.94;5011977;28;1949;-65
2023/10/02 01:43:26;;;;;;;;;;;;;;;18.12;79.13;100036.16;5012219;28;868;-65
2023/10/02 01:46:00;;;;;;;;;;;;;;;18.07;79.45;100033.94;5012010;28;899;-65
2023/10/02 01:48:45;;;;;;;;;;;;;;;17.99;79.59;100037.38;4994373;28;1255;-64
2023/10/02 01:51:31;;;;;;;;;;;;;;;17.97;79.96;100037.84;5011947;28;927;-65
2023/10/02 01:54:15;;;;;;;;;;;;;;;17.93;79.91;100037.19;5011920;28;930;-65
2023/10/02 01:56:45;;;;;;;;;;;;;;;17.88;79.00;100041.31;5011956;28;919;-66
2023/10/02 01:59:19;;;;;;;;;;;;;;;17.84;78.56;100049.03;5011918;28;840;-64
2023/10/02 02:01:51;;;;;;;;;;;;;;;17.83;78.19;100049.47;5011803;28;1894;-65
2023/10/02 02:04:18;;;;;;;;;;;;;;;17.72;77.25;100038.59;5010572;28;1463;-64
2023/10/02 02:06:55;;;;;;;;;;;;;;;17.72;77.29;100044.19;5011811;28;864;-65
2023/10/02 02:09:30;;;;;;;;;;;;;;;17.68;77.24;100047.06;5011734;28;860;-64
2023/10/02 02:12:14;;;;;;;;;;;;;;;17.63;77.31;100047.63;5011809;28;844;-66
2023/10/02 02:14:50;;;;;;;;;;;;;;;17.63;76.79;100047.63;5011435;28;1154;-66
2023/10/02 02:17:26;;;;;;;;;;;;;;;17.62;76.80;100053.66;5012064;28;910;-64
2023/10/02 02:19:59;;;;;;;;;;;;;;;17.60;76.44;100054.09;5011643;28;903;-65
2023/10/02 02:22:26;;;;;;;;;;;;;;;17.57;75.33;100055.00;5011633;28;1914;-66
2023/10/02 02:24:55;;;;;;;;;;;;;;;17.56;75.41;100050.66;5011532;28;872;-65
2023/10/02 02:27:22;;;;;;;;;;;;;;;17.53;75.12;100048.72;5011643;28;813;-64
2023/10/02 02:29:50;;;;;;;;;;;;;;;17.47;74.59;100054.06;5011636;28;844;-64
2023/10/02 02:32:19;;;;;;;;;;;;;;;17.46;74.77;100041.34;5011591;28;923;-64
2023/10/02 02:34:47;;;;;;;;;;;;;;;17.42;75.07;100039.88;5011534;28;1259;-64
2023/10/02 02:37:13;;;;;;;;;;;;;;;17.40;75.02;100033.97;5011346;28;1202;-65
2023/10/02 02:39:40;;;;;;;;;;;;;;;17.30;75.50;100047.81;5011835;28;1204;-65
2023/10/02 02:44:46;;;;;;;;;;;;;;;17.24;76.06;100049.56;5011471;28;666;-64
2023/10/02 02:47:14;;;;;;;;;;;;;;;17.23;75.95;100045.19;5014595;28;916;-65
2023/10/02 02:49:51;;;;;;;;;;;;;;;17.17;76.11;100049.75;5013800;28;1182;-65
2023/10/02 02:52:33;;;;;;;;;;;;;;;17.08;77.13;100047.59;5015048;28;848;-65
2023/10/02 02:55:05;;;;;;;;;;;;;;;17.06;77.31;100038.09;5014863;28;828;-65
2023/10/02 02:57:32;;;;;;;;;;;;;;;17.04;76.82;100040.56;5015009;28;1278;-66
2023/10/02 03:02:47;;;;;;;;;;;;;;;16.87;75.83;100045.41;5014793;28;1949;-64
2023/10/02 03:05:20;;;;;;;;;;;;;;;16.82;75.97;100055.09;5014743;28;859;-65
2023/10/02 03:07:49;;;;;;;;;;;;;;;16.76;75.87;100050.47;5014908;28;892;-66
2023/10/02 03:10:19;;;;;;;;;;;;;;;16.72;75.72;100053.34;5014535;28;856;-64
2023/10/02 03:12:48;;;;;;;;;;;;;;;16.75;75.26;100058.06;5014644;28;878;-65
2023/10/02 03:15:17;;;;;;;;;;;;;;;16.76;74.69;100056.81;5014044;28;1419;-64
2023/10/02 03:17:45;;;;;;;;;;;;;;;16.77;74.49;100061.19;5014519;28;888;-65
2023/10/02 03:20:24;;;;;;;;;;;;;;;16.73;74.56;100063.28;5014363;28;896;-66
2023/10/02 03:22:54;;;;;;;;;;;;;;;16.76;74.19;100070.78;5014389;28;1977;-65
2023/10/02 03:27:55;;;;;;;;;;;;;;;16.81;74.62;100066.69;5014238;28;702;-66
2023/10/02 03:30:43;;;;;;;;;;;;;;;16.82;74.43;100071.06;5014222;28;940;-67
2023/10/02 03:33:20;;;;;;;;;;;;;;;16.86;74.29;100077.34;5014180;28;828;-65
2023/10/02 03:36:08;;;;;;;;;;;;;;;16.82;74.42;100071.06;5014207;28;899;-64
2023/10/02 03:38:41;;;;;;;;;;;;;;;16.85;74.39;100073.75;5014026;28;1035;-65
2023/10/02 03:41:09;;;;;;;;;;;;;;;16.83;74.57;100064.25;5013947;28;1890;-65
2023/10/02 03:43:56;;;;;;;;;;;;;;;16.76;74.80;100076.34;5013959;28;1144;-65
2023/10/02 03:46:35;;;;;;;;;;;;;;;16.75;74.51;100069.22;5013928;28;840;-64
2023/10/02 03:49:04;;;;;;;;;;;;;;;16.70;73.79;100069.72;5013941;28;907;-65
2023/10/02 03:51:37;;;;;;;;;;;;;;;16.72;73.56;100079.22;5013763;28;840;-65
2023/10/02 03:54:17;;;;;;;;;;;;;;;16.70;73.12;100062.13;4996163;28;1276;-64
2023/10/02 03:56:51;;;;;;;;;;;;;;;16.70;73.11;100078.09;5013230;28;829;-65
2023/10/02 03:59:20;;;;;;;;;;;;;;;16.68;72.79;100075.75;5013390;28;872;-64
2023/10/02 04:01:48;;;;;;;;;;;;;;;16.65;72.49;100075.84;5013595;28;1957;-65
2023/10/02 04:04:21;;;;;;;;;;;;;;;16.66;72.37;100097.75;5013531;28;832;-64
2023/10/02 04:06:53;;;;;;;;;;;;;;;16.61;72.21;100091.91;5013902;28;833;-65
2023/10/02 04:09:25;;;;;;;;;;;;;;;16.61;72.03;100100.28;5013501;28;924;-64
2023/10/02 04:11:58;;;;;;;;;;;;;;;16.62;72.02;100104.63;5013444;28;817;-65
2023/10/02 04:14:38;;;;;;;;;;;;;;;16.64;71.40;100104.97;5013330;28;1407;-64
2023/10/02 04:17:20;;;;;;;;;;;;;;;16.62;71.12;100088.69;5013353;28;900;-65
2023/10/02 04:19:49;;;;;;;;;;;;;;;16.62;71.33;100111.00;5013562;28;914;-66
2023/10/02 04:22:19;;;;;;;;;;;;;;;16.62;70.70;100099.03;5013118;28;2005;-65
2023/10/02 04:25:03;;;;;;;;;;;;;;;16.65;70.33;100117.72;5013170;28;871;-64
2023/10/02 04:32:51;;;;;;;;;;;;;;;16.74;69.10;100126.25;5013100;28;826;-67
2023/10/02 04:38:09;;;;;;;;;;;;;;;16.75;68.89;100125.03;5013045;28;835;-65
2023/10/02 04:40:55;;;;;;;;;;;;;;;16.79;68.53;100136.91;5012796;28;1955;-65
2023/10/02 04:43:25;;;;;;;;;;;;;;;16.82;68.43;100136.03;5012950;28;924;-65
2023/10/02 04:45:52;;;;;;;;;;;;;;;16.84;68.11;100130.03;5013070;28;880;-65
2023/10/02 04:48:27;;;;;;;;;;;;;;;16.81;68.14;100131.66;5012832;28;896;-65
2023/10/02 04:50:54;;;;;;;;;;;;;;;16.79;68.36;100136.91;5012756;28;851;-66
2023/10/02 04:53:22;;;;;;;;;;;;;;;16.85;68.28;100140.75;5012691;28;963;-65
2023/10/02 04:55:57;;;;;;;;;;;;;;;16.85;68.21;100148.34;5012678;28;1250;-68
2023/10/02 04:58:27;;;;;;;;;;;;;;;16.82;67.92;100149.22;5012605;28;875;-65
2023/10/02 05:03:34;;;;;;;;;;;;;;;16.78;68.13;100154.06;5012720;28;858;-66
2023/10/02 05:06:03;;;;;;;;;;;;;;;16.78;68.20;100152.06;5012612;28;809;-66
2023/10/02 05:09:12;;;;;;;;;;;;;;;16.76;68.10;100148.94;5012285;28;884;-66
2023/10/02 05:11:46;;;;;;;;;;;;;;;16.79;68.35;100159.22;5011943;28;1079;-65
2023/10/02 05:14:14;;;;;;;;;;;;;;;16.78;67.65;100162.44;5012358;28;1456;-66
2023/10/02 05:16:42;;;;;;;;;;;;;;;16.80;68.00;100158.03;5012371;28;817;-66
2023/10/02 05:19:09;;;;;;;;;;;;;;;16.77;67.56;100161.66;5012320;28;892;-65
2023/10/02 05:21:39;;;;;;;;;;;;;;;16.77;67.74;100169.25;5012094;28;1918;-66
2023/10/02 05:24:07;;;;;;;;;;;;;;;16.77;68.09;100161.66;5012315;28;867;-66
2023/10/02 05:26:38;;;;;;;;;;;;;;;16.77;68.04;100172.84;5012158;28;801;-65
2023/10/02 05:29:06;;;;;;;;;;;;;;;16.79;67.24;100177.97;5012441;28;939;-65
2023/10/02 05:31:40;;;;;;;;;;;;;;;16.82;67.19;100172.34;5012333;28;805;-64
2023/10/02 05:34:16;;;;;;;;;;;;;;;16.83;67.88;100171.09;5010812;28;1371;-66
2023/10/02 05:39:39;;;;;;;;;;;;;;;16.81;66.92;100195.88;5012377;28;674;-65
2023/10/02 05:42:16;;;;;;;;;;;;;;;16.75;67.36;100194.81;5010686;28;1893;-65
2023/10/02 05:44:44;;;;;;;;;;;;;;;16.78;67.96;100209.91;5011950;28;879;-68
2023/10/02 05:47:24;;;;;;;;;;;;;;;16.80;67.70;100225.03;5011991;28;845;-65
2023/10/02 05:49:53;;;;;;;;;;;;;;;16.79;66.81;100223.44;5011884;28;883;-67
2023/10/02 05:52:20;;;;;;;;;;;;;;;16.82;66.62;100227.38;5012248;28;983;-67
2023/10/02 05:54:53;;;;;;;;;;;;;;;16.82;66.74;100242.13;5010689;28;1274;-67
2023/10/02 05:57:20;;;;;;;;;;;;;;;16.78;67.21;100241.38;5011828;28;931;-66
2023/10/02 05:59:54;;;;;;;;;;;;;;;16.76;67.49;100243.03;5011946;28;824;-67
2023/10/02 06:02:22;;;;;;;;;;;;;;;16.73;67.72;100262.22;5011998;28;1958;-66
2023/10/02 06:04:52;;;;;;;;;;;;;;;16.76;68.13;100268.16;5011987;28;809;-67
2023/10/02 06:07:43;;;;;;;;;;;;;;;16.80;68.16;100282.81;5011856;28;903;-65
2023/10/02 06:10:24;;;;;;;;;;;;;;;16.81;68.16;100284.41;5011806;28;887;-67
2023/10/02 06:13:02;;;;;;;;;;;;;;;16.84;68.38;100297.53;5012004;28;996;-66
2023/10/02 06:15:52;;;;;;;;;;;;;;;16.88;68.12;100306.59;4973443;28;1240;-67
2023/10/02 06:18:24;;;;;;;;;;;;;;;16.91;68.09;100319.69;4972709;28;864;-66
2023/10/02 06:21:00;;;;;;;;;;;;;;;16.92;68.14;100329.66;4973809;28;1914;-66
2023/10/02 06:23:29;;;;;;;;;;;;;;;16.86;68.03;100332.16;4976447;28;841;-65
2023/10/02 06:25:58;;;;;;;;;;;;;;;16.74;68.24;100343.94;4974896;28;1223;-67
2023/10/02 06:28:28;;;;;;;;;;;;;;;16.68;68.92;100354.03;4976640;28;869;-67
2023/10/02 06:30:55;;;;;;;;;;;;;;;16.63;69.21;100343.41;4976302;28;957;-67
2023/10/02 06:33:25;;;;;;;;;;;;;;;16.63;69.26;100357.34;4976240;28;888;-66
2023/10/02 06:36:00;;;;;;;;;;;;;;;16.60;69.46;100344.25;4976259;28;908;-66
2023/10/02 06:38:31;;;;;;;;;;;;;;;16.56;69.80;100349.13;4976070;28;861;-66
2023/10/02 06:40:59;;;;;;;;;;;;;;;16.51;70.50;100362.38;4976097;28;1890;-67
2023/10/02 07:14:23;;;;;;;;;;;;;;;16.44;69.38;100395.97;4992185;28;1843;-60
2023/10/02 07:17:08;;;;;;;;;;;;;;;16.44;69.61;100393.19;4994914;28;1103;-59
2023/10/02 07:19:38;;;;;;;;;;;;;;;16.43;68.99;100391.63;4995024;28;943;-59
2023/10/02 07:22:05;;;;;;;;;;;;;;;16.42;68.23;100397.63;4994970;28;1975;-59
2023/10/02 07:24:40;;;;;;;;;;;;;;;16.45;68.16;100396.75;4994774;28;903;-60
2023/10/02 07:27:22;;;;;;;;;;;;;;;16.46;68.31;100398.34;4994815;28;875;-60
2023/10/02 07:29:52;;;;;;;;;;;;;;;16.45;68.48;100397.56;4994616;28;900;-57
2023/10/02 07:32:19;;;;;;;;;;;;;;;16.44;67.79;100401.56;4993312;28;931;-57
2023/10/02 07:34:46;;;;;;;;;;;;;;;16.46;67.35;100404.72;4961015;28;1618;-57
2023/10/02 07:37:21;;;;;;;;;;;;;;;16.37;66.80;100398.16;4994426;28;911;-57
2023/10/02 07:39:58;;;;;;;;;;;;;;;16.41;66.81;100408.00;4994790;28;886;-57
2023/10/02 07:42:34;;;;;;;;;;;;;;;16.37;67.11;100407.28;4994253;28;1945;-58
2023/10/02 07:45:21;;;;;;;;;;;;;;;16.42;67.22;100415.16;4994521;28;827;-57
2023/10/02 07:50:44;;;;;;;;;;;;;;;16.38;68.00;100420.00;4985437;28;1072;-57
2023/10/02 07:53:12;;;;;;;;;;;;;;;16.40;67.80;100425.94;4994327;28;892;-57
2023/10/02 07:55:42;;;;;;;;;;;;;;;16.48;68.32;100421.03;4994087;28;912;-57
2023/10/02 07:58:10;;;;;;;;;;;;;;;16.49;67.69;100425.38;4994223;28;899;-57
2023/10/02 08:00:43;;;;;;;;;;;;;;;16.50;67.66;100416.59;4994032;28;884;-57
2023/10/02 08:03:36;;;;;;;;;;;;;;;16.51;67.50;100429.34;4994022;28;880;-57
2023/10/02 08:06:21;;;;;;;;;;;;;;;16.49;67.33;100431.78;4993938;28;880;-57
2023/10/02 08:11:47;;;;;;;;;;;;;;;16.51;68.21;100426.56;4994134;28;902;-57
2023/10/02 08:20:16;;;;;;;;;;;;;;;16.48;68.78;100424.59;4971169;28;1279;-57
2023/10/02 08:22:48;;;;;;;;;;;;;;;16.50;68.77;100415.81;4993674;28;1914;-57
2023/10/02 08:25:23;;;;;;;;;;;;;;;16.47;69.57;100420.25;4993580;28;919;-57
2023/10/02 08:27:55;;;;;;;;;;;;;;;16.46;69.65;100427.03;4993629;28;892;-57
2023/10/02 08:30:31;;;;;;;;;;;;;;;16.51;69.90;100425.75;4993577;28;891;-57
2023/10/02 08:33:14;;;;;;;;;;;;;;;16.52;70.09;100427.34;4993796;28;820;-57
2023/10/02 08:35:46;;;;;;;;;;;;;;;16.55;69.50;100432.03;4993720;28;939;-57
2023/10/02 08:38:25;;;;;;;;;;;;;;;16.57;69.35;100438.00;4993316;28;892;-57
2023/10/02 08:41:04;;;;;;;;;;;;;;;16.60;69.34;100431.56;4993093;28;1889;-57
2023/10/02 08:43:32;;;;;;;;;;;;;;;16.68;68.63;100434.97;4992953;28;859;-57
2023/10/02 08:45:59;;;;;;;;;;;;;;;16.74;67.27;100436.06;4993137;28;927;-58
2023/10/02 08:48:26;;;;;;;;;;;;;;;16.87;66.38;100442.59;4993229;28;836;-57
2023/10/02 08:50:57;;;;;;;;;;;;;;;17.07;65.97;100439.81;4993106;28;895;-57
2023/10/02 08:53:28;;;;;;;;;;;;;;;17.26;65.68;100440.19;4993044;28;881;-57
2023/10/02 08:56:01;;;;;;;;;;;;;;;17.33;64.82;100438.03;4993108;28;824;-57
2023/10/02 08:58:29;;;;;;;;;;;;;;;17.51;64.52;100443.19;4992993;28;1078;-57
2023/10/02 09:03:42;;;;;;;;;;;;;;;17.73;63.74;100443.50;4992891;28;819;-57
2023/10/02 09:06:25;;;;;;;;;;;;;;;17.62;63.93;100451.31;4975602;28;890;-57
2023/10/02 09:11:39;;;;;;;;;;;;;;;17.53;63.91;100446.34;4993145;28;942;-57
2023/10/02 09:17:07;;;;;;;;;;;;;;;17.66;62.98;100440.84;4992753;28;1219;-56
2023/10/02 09:19:34;;;;;;;;;;;;;;;17.72;63.11;100452.31;4992704;28;935;-57
2023/10/02 09:22:07;;;;;;;;;;;;;;;17.67;63.36;100450.81;4992460;28;1964;-56
2023/10/02 09:24:55;;;;;;;;;;;;;;;17.66;63.37;100457.63;4992765;28;869;-57
2023/10/02 09:27:23;;;;;;;;;;;;;;;17.61;63.76;100462.97;4975157;28;1445;-57
2023/10/02 09:32:48;;;;;;;;;;;;;;;17.75;63.44;100457.81;4992932;28;659;-56
2023/10/02 09:35:29;;;;;;;;;;;;;;;17.88;62.61;100454.34;4992532;28;797;-57
2023/10/02 09:38:06;;;;;;;;;;;;;;;18.01;61.93;100458.03;4992763;28;900;-57
2023/10/02 09:43:35;;;;;;;;;;;;;;;17.94;60.70;100459.00;4992748;28;802;-57
2023/10/02 09:46:06;;;;;;;;;;;;;;;17.87;60.72;100452.78;4976550;28;872;-57
2023/10/02 09:51:37;;;;;;;;;;;;;;;18.07;61.37;100456.28;4992714;28;829;-57
2023/10/02 09:54:09;;;;;;;;;;;;;;;17.99;61.48;100454.06;4992265;28;908;-57
2023/10/02 09:57:04;;;;;;;;;;;;;;;17.99;61.79;100454.88;4994876;28;872;-57
2023/10/02 09:59:45;;;;;;;;;;;;;;;17.93;61.49;100449.00;4985133;28;1687;-57
2023/10/02 10:08:16;;;;;;;;;;;;;;;18.10;60.42;100449.00;4996159;28;879;-57
2023/10/02 10:13:37;;;;;;;;;;;;;;;18.57;59.79;100437.38;4978700;28;1329;-56
2023/10/02 10:16:20;;;;;;;;;;;;;;;18.74;58.54;100427.69;4995964;28;864;-56
2023/10/02 10:19:44;;;;;;;;;;;;;;;18.66;58.00;100431.91;4996392;28;883;-58
2023/10/02 10:22:01;;;;;;;;;;;;;;;18.72;58.32;100423.75;4985159;28;1975;-57
2023/10/02 10:24:31;;;;;;;;;;;;;;;19.06;57.89;100417.56;4996010;28;891;-56
2023/10/02 10:26:58;;;;;;;;;;;;;;;19.09;57.33;100416.66;4995850;28;844;-57
2023/10/02 10:29:37;;;;;;;;;;;;;;;19.12;56.63;100415.03;4995739;28;911;-57
2023/10/02 10:32:24;;;;;;;;;;;;;;;19.22;56.27;100419.47;4995965;28;857;-57
2023/10/02 10:35:12;;;;;;;;;;;;;;;19.15;56.08;100420.50;4978918;28;1342;-56
2023/10/02 10:37:48;;;;;;;;;;;;;;;19.03;56.49;100414.88;4996538;28;820;-56
2023/10/02 10:46:31;;;;;;;;;;;;;;;19.23;55.70;100417.50;4954622;29;1272;-57
2023/10/02 10:49:23;;;;;;;;;;;;;;;19.03;55.43;100417.69;4954620;29;947;-57
2023/10/02 10:51:52;;;;;;;;;;;;;;;19.09;54.85;100407.50;4954565;29;908;-56
2023/10/02 10:54:25;;;;;;;;;;;;;;;19.42;54.81;100410.09;4954520;29;921;-56
2023/10/02 10:56:58;;;;;;;;;;;;;;;19.78;53.98;100416.16;4954434;29;1015;-56
2023/10/02 10:59:32;;;;;;;;;;;;;;;19.82;53.09;100413.19;4954606;29;840;-56
2023/10/02 11:02:14;;;;;;;;;;;;;;;19.95;52.62;100407.56;4954330;29;1993;-57
2023/10/02 11:04:50;;;;;;;;;;;;;;;19.92;52.00;100416.91;4938179;29;1302;-56
2023/10/02 11:07:26;;;;;;;;;;;;;;;20.02;52.17;100410.13;4954000;28;907;-56
2023/10/02 11:10:20;;;;;;;;;;;;;;;19.93;51.18;100408.03;4938239;29;1319;-57
2023/10/02 11:12:58;;;;;;;;;;;;;;;19.54;50.93;100404.50;4953970;28;1476;-56
2023/10/02 11:18:22;;;;;;;;;;;;;;;19.36;51.98;100402.22;4954345;29;1171;-56
2023/10/02 11:20:51;;;;;;;;;;;;;;;19.46;51.53;100400.34;4979674;28;1973;-57
2023/10/02 11:23:40;;;;;;;;;;;;;;;19.45;51.38;100397.97;4994682;28;868;-56
2023/10/02 11:26:21;;;;;;;;;;;;;;;19.54;51.02;100396.06;4994622;28;928;-56
2023/10/02 11:28:51;;;;;;;;;;;;;;;19.42;51.08;100387.69;4994706;28;919;-57
2023/10/02 11:31:35;;;;;;;;;;;;;;;19.35;51.33;100372.66;4994537;28;892;-55
2023/10/02 11:34:01;;;;;;;;;;;;;;;19.36;51.83;100377.00;4994715;28;927;-56
2023/10/02 11:36:36;;;;;;;;;;;;;;;19.46;52.30;100382.72;4994806;28;888;-57
2023/10/02 11:39:09;;;;;;;;;;;;;;;19.36;51.71;100377.00;4994324;28;877;-56
2023/10/02 11:41:39;;;;;;;;;;;;;;;19.26;51.79;100372.53;4994441;28;1956;-56
2023/10/02 11:44:07;;;;;;;;;;;;;;;19.22;51.98;100374.66;4994296;28;892;-56
2023/10/02 11:46:34;;;;;;;;;;;;;;;19.35;51.83;100369.03;4994397;28;907;-56
2023/10/02 11:49:01;;;;;;;;;;;;;;;19.46;51.58;100368.69;4994223;28;970;-56
2023/10/02 11:51:28;;;;;;;;;;;;;;;19.47;51.15;100375.88;4994264;28;931;-56
2023/10/02 11:53:58;;;;;;;;;;;;;;;19.41;51.07;100364.44;4994109;28;868;-56
2023/10/02 11:56:26;;;;;;;;;;;;;;;19.46;51.50;100371.50;4994349;28;903;-56
2023/10/02 11:58:53;;;;;;;;;;;;;;;19.47;51.11;100361.88;4994191;28;864;-56
2023/10/02 12:01:23;;;;;;;;;;;;;;;19.50;51.01;100372.97;4994497;28;1959;-57
2023/10/02 12:03:50;;;;;;;;;;;;;;;19.61;50.96;100372.63;4976590;28;879;-56
2023/10/02 12:06:17;;;;;;;;;;;;;;;19.87;50.83;100378.97;4976602;28;1867;-56
2023/10/02 12:08:44;;;;;;;;;;;;;;;19.90;50.26;100374.47;4993985;28;856;-56
2023/10/02 12:11:13;;;;;;;;;;;;;;;19.96;50.49;100373.44;4976397;28;908;-56
2023/10/02 12:13:42;;;;;;;;;;;;;;;20.04;50.07;100381.63;4993592;28;1421;-56
2023/10/02 12:16:11;;;;;;;;;;;;;;;19.90;50.57;100382.91;4993727;28;978;-56
2023/10/02 12:18:38;;;;;;;;;;;;;;;19.82;50.69;100385.16;4993242;28;919;-56
2023/10/02 12:21:09;;;;;;;;;;;;;;;19.64;50.89;100384.94;4993755;28;1918;-56
2023/10/02 12:23:39;;;;;;;;;;;;;;;19.48;51.58;100380.25;4993887;28;915;-56
2023/10/02 12:26:09;;;;;;;;;;;;;;;19.43;51.66;100380.81;4993421;28;1136;-56
2023/10/02 12:28:37;;;;;;;;;;;;;;;19.44;51.89;100386.00;4976104;28;1460;-56
2023/10/02 12:31:19;;;;;;;;;;;;;;;19.53;51.82;100379.69;4993795;28;861;-56
2023/10/02 12:33:46;;;;;;;;;;;;;;;19.59;51.80;100392.69;4993658;28;910;-56
2023/10/02 12:36:23;;;;;;;;;;;;;;;19.63;51.57;100389.78;4993735;28;915;-56
2023/10/02 12:38:50;;;;;;;;;;;;;;;19.46;52.02;100388.31;4993374;28;832;-57
2023/10/02 12:41:18;;;;;;;;;;;;;;;19.42;52.44;100382.84;4993201;28;1890;-56
2023/10/02 12:43:46;;;;;;;;;;;;;;;19.47;52.64;100381.50;4976085;28;872;-56
2023/10/02 12:46:17;;;;;;;;;;;;;;;19.49;52.70;100384.63;4993192;28;917;-56
2023/10/02 12:48:47;;;;;;;;;;;;;;;19.49;52.83;100371.41;4976631;28;915;-56
2023/10/02 12:51:17;;;;;;;;;;;;;;;19.49;53.08;100376.22;4993148;28;912;-56
2023/10/02 12:53:44;;;;;;;;;;;;;;;19.31;53.26;100365.56;4993222;28;882;-56
2023/10/02 12:56:19;;;;;;;;;;;;;;;19.13;53.77;100364.13;4992963;28;868;-57
2023/10/02 12:58:50;;;;;;;;;;;;;;;19.02;54.48;100365.69;4993026;28;943;-56
2023/10/02 13:01:18;;;;;;;;;;;;;;;18.98;54.67;100363.00;4975473;28;1898;-56
2023/10/02 13:03:46;;;;;;;;;;;;;;;19.02;54.91;100363.69;4992989;28;844;-57
2023/10/02 13:06:13;;;;;;;;;;;;;;;19.02;55.14;100360.09;4992910;28;828;-56
2023/10/02 13:08:50;;;;;;;;;;;;;;;19.11;55.02;100363.00;4992898;28;884;-56
2023/10/02 13:11:21;;;;;;;;;;;;;;;19.19;54.74;100353.16;4992783;28;1042;-57
2023/10/02 13:13:49;;;;;;;;;;;;;;;19.32;54.32;100351.13;4992631;28;1491;-57
2023/10/02 13:16:16;;;;;;;;;;;;;;;19.46;53.68;100352.69;4992855;28;864;-57
2023/10/02 13:18:46;;;;;;;;;;;;;;;19.69;53.40;100357.09;4992636;28;882;-56
2023/10/02 13:21:22;;;;;;;;;;;;;;;19.98;52.85;100356.19;4992628;28;1918;-56
2023/10/02 13:23:49;;;;;;;;;;;;;;;20.17;52.22;100359.91;4992548;28;896;-56
2023/10/02 13:26:19;;;;;;;;;;;;;;;20.28;51.84;100348.31;4992575;28;943;-56
2023/10/02 13:28:52;;;;;;;;;;;;;;;20.56;50.50;100346.47;4992745;28;860;-56
2023/10/02 13:31:19;;;;;;;;;;;;;;;21.60;49.14;100348.06;4992796;28;820;-56
2023/10/02 13:33:52;;;;;;;;;;;;;;;22.44;46.33;100352.47;4992410;28;914;-56
2023/10/02 13:36:23;;;;;;;;;;;;;;;22.33;46.10;100350.13;4992502;28;990;-56
2023/10/02 13:38:51;;;;;;;;;;;;;;;22.12;45.99;100351.06;4992377;28;931;-56
2023/10/02 13:41:18;;;;;;;;;;;;;;;21.65;45.16;100349.47;4992569;28;1890;-56
2023/10/02 13:43:47;;;;;;;;;;;;;;;21.08;46.50;100341.28;4992479;28;887;-56
2023/10/02 13:46:18;;;;;;;;;;;;;;;20.79;47.50;100340.38;4992266;28;867;-56
2023/10/02 13:48:45;;;;;;;;;;;;;;;20.57;48.33;100345.25;4992603;28;840;-56
2023/10/02 13:51:19;;;;;;;;;;;;;;;20.52;48.57;100340.97;4992898;28;885;-56
2023/10/02 13:53:46;;;;;;;;;;;;;;;20.86;48.28;100346.97;4974926;28;1558;-56
2023/10/02 13:56:16;;;;;;;;;;;;;;;21.06;48.02;100349.41;4992273;28;1023;-56
2023/10/02 13:58:51;;;;;;;;;;;;;;;20.86;48.34;100347.75;4992292;28;947;-56
2023/10/02 14:01:21;;;;;;;;;;;;;;;20.89;48.76;100355.28;4974728;28;1939;-55
2023/10/02 14:03:52;;;;;;;;;;;;;;;21.07;48.01;100363.00;4992691;28;825;-56
2023/10/02 14:06:20;;;;;;;;;;;;;;;21.16;48.20;100354.59;4992194;28;876;-56
2023/10/02 14:08:47;;;;;;;;;;;;;;;21.09;48.50;100359.72;4992150;28;833;-56
2023/10/02 14:11:17;;;;;;;;;;;;;;;20.84;49.13;100361.47;4992222;28;1010;-56
2023/10/02 14:13:48;;;;;;;;;;;;;;;20.48;49.87;100365.59;4991986;28;1526;-56
2023/10/02 14:16:19;;;;;;;;;;;;;;;20.07;50.79;100361.84;4992144;28;904;-56
2023/10/02 14:18:53;;;;;;;;;;;;;;;19.74;51.77;100365.00;4992015;28;927;-56
2023/10/02 14:21:23;;;;;;;;;;;;;;;19.46;52.61;100371.50;4975664;28;1974;-57
2023/10/02 14:23:54;;;;;;;;;;;;;;;19.25;53.08;100373.00;4992217;28;869;-56
2023/10/02 14:26:22;;;;;;;;;;;;;;;19.15;53.50;100372.84;4992076;28;1147;-56
2023/10/02 14:28:48;;;;;;;;;;;;;;;19.06;53.88;100377.59;4991953;28;935;-56
2023/10/02 14:31:32;;;;;;;;;;;;;;;18.99;54.44;100381.38;4991946;28;891;-56
2023/10/02 14:33:59;;;;;;;;;;;;;;;18.91;54.96;100380.03;4991947;28;935;-56
2023/10/02 14:36:28;;;;;;;;;;;;;;;18.83;55.61;100384.28;4991704;28;896;-56
2023/10/02 14:38:57;;;;;;;;;;;;;;;18.72;56.42;100379.72;4991896;28;892;-56
2023/10/02 14:41:25;;;;;;;;;;;;;;;18.63;57.32;100376.03;4992351;28;1949;-56
2023/10/02 14:43:53;;;;;;;;;;;;;;;18.56;57.84;100383.41;4995626;28;1001;-56
2023/10/02 14:46:21;;;;;;;;;;;;;;;18.53;58.18;100384.28;4995453;28;959;-56
2023/10/02 14:48:48;;;;;;;;;;;;;;;18.51;58.45;100385.94;4995741;28;939;-56
2023/10/02 14:51:14;;;;;;;;;;;;;;;18.50;58.38;100382.38;4995449;28;840;-56
2023/10/02 14:53:41;;;;;;;;;;;;;;;18.46;59.07;100384.50;4995457;28;809;-56
2023/10/02 14:56:08;;;;;;;;;;;;;;;18.52;59.56;100385.50;4995363;28;858;-56
2023/10/02 14:58:40;;;;;;;;;;;;;;;18.69;59.13;100380.63;4995211;28;1007;-56
2023/10/02 15:01:12;;;;;;;;;;;;;;;18.83;58.90;100384.28;4995183;28;1891;-56
2023/10/02 15:03:40;;;;;;;;;;;;;;;18.96;58.57;100390.66;4995115;28;1366;-56